sensor_id;sensor_type;location;lat;lon;timestamp;P1;durP1;ratioP1;P2;durP2;ratioP2
22314;SDS011;11325;55.686;37.566;2023-09-18T00:00:21;11.20;;;5.17;;
22314;SDS011;11325;55.686;37.566;2023-09-18T00:02:49;7.97;;;5.20;;
22314;SDS011;11325;55.686;37.566;2023-09-18T00:05:18;7.87;;;4.55;;
22314;SDS011;11325;55.686;37.566;2023-09-18T00:07:46;9.30;;;5.30;;
22314;SDS011;11325;55.686;37.566;2023-09-18T00:10:25;7.42;;;5.10;;
22314;SDS011;11325;55.686;37.566;2023-09-18T00:12:54;11.88;;;5.00;;
22314;SDS011;11325;55.686;37.566;2023-09-18T00:15:34;7.15;;;4.90;;
22314;SDS011;11325;55.686;37.566;2023-09-18T00:18:04;8.03;;;5.03;;
22314;SDS011;11325;55.686;37.566;2023-09-18T00:20:43;8.43;;;5.15;;
22314;SDS011;11325;55.686;37.566;2023-09-18T00:23:14;9.45;;;5.12;;
22314;SDS011;11325;55.686;37.566;2023-09-18T00:25:43;11.68;;;4.97;;
22314;SDS011;11325;55.686;37.566;2023-09-18T00:28:12;8.55;;;5.15;;
22314;SDS011;11325;55.686;37.566;2023-09-18T00:30:47;7.72;;;5.03;;
22314;SDS011;11325;55.686;37.566;2023-09-18T00:33:24;7.00;;;4.80;;
22314;SDS011;11325;55.686;37.566;2023-09-18T00:35:53;7.47;;;4.17;;
22314;SDS011;11325;55.686;37.566;2023-09-18T00:38:22;6.37;;;4.30;;
22314;SDS011;11325;55.686;37.566;2023-09-18T00:40:50;9.00;;;4.83;;
22314;SDS011;11325;55.686;37.566;2023-09-18T00:43:18;8.53;;;3.90;;
22314;SDS011;11325;55.686;37.566;2023-09-18T00:45:59;8.50;;;4.25;;
22314;SDS011;11325;55.686;37.566;2023-09-18T00:48:28;6.83;;;4.60;;
22314;SDS011;11325;55.686;37.566;2023-09-18T00:51:08;7.00;;;4.75;;
22314;SDS011;11325;55.686;37.566;2023-09-18T00:53:37;10.75;;;5.15;;
22314;SDS011;11325;55.686;37.566;2023-09-18T00:56:17;7.12;;;4.67;;
22314;SDS011;11325;55.686;37.566;2023-09-18T00:58:47;11.28;;;5.10;;
22314;SDS011;11325;55.686;37.566;2023-09-18T01:01:17;7.03;;;4.72;;
22314;SDS011;11325;55.686;37.566;2023-09-18T01:03:58;7.70;;;4.28;;
22314;SDS011;11325;55.686;37.566;2023-09-18T01:06:27;12.78;;;4.87;;
22314;SDS011;11325;55.686;37.566;2023-09-18T01:08:57;6.95;;;4.37;;
22314;SDS011;11325;55.686;37.566;2023-09-18T01:11:31;6.25;;;4.30;;
22314;SDS011;11325;55.686;37.566;2023-09-18T01:14:20;11.45;;;4.28;;
22314;SDS011;11325;55.686;37.566;2023-09-18T01:16:51;6.47;;;4.37;;
22314;SDS011;11325;55.686;37.566;2023-09-18T01:19:38;7.10;;;4.97;;
22314;SDS011;11325;55.686;37.566;2023-09-18T01:22:06;9.98;;;4.75;;
22314;SDS011;11325;55.686;37.566;2023-09-18T01:24:35;12.15;;;4.65;;
22314;SDS011;11325;55.686;37.566;2023-09-18T01:27:05;10.68;;;4.42;;
22314;SDS011;11325;55.686;37.566;2023-09-18T01:29:34;7.20;;;4.83;;
22314;SDS011;11325;55.686;37.566;2023-09-18T01:32:13;8.48;;;4.92;;
22314;SDS011;11325;55.686;37.566;2023-09-18T01:34:49;7.30;;;4.97;;
22314;SDS011;11325;55.686;37.566;2023-09-18T01:37:21;7.45;;;4.53;;
22314;SDS011;11325;55.686;37.566;2023-09-18T01:40:00;5.67;;;4.28;;
22314;SDS011;11325;55.686;37.566;2023-09-18T01:42:41;7.80;;;4.33;;
22314;SDS011;11325;55.686;37.566;2023-09-18T01:45:10;10.05;;;4.92;;
22314;SDS011;11325;55.686;37.566;2023-09-18T01:47:39;6.92;;;4.80;;
22314;SDS011;11325;55.686;37.566;2023-09-18T01:50:09;8.33;;;4.92;;
22314;SDS011;11325;55.686;37.566;2023-09-18T01:52:48;7.53;;;4.53;;
22314;SDS011;11325;55.686;37.566;2023-09-18T01:55:16;8.30;;;4.50;;
22314;SDS011;11325;55.686;37.566;2023-09-18T01:57:45;6.95;;;4.30;;
22314;SDS011;11325;55.686;37.566;2023-09-18T02:00:24;8.33;;;4.33;;
22314;SDS011;11325;55.686;37.566;2023-09-18T02:02:52;6.47;;;4.40;;
22314;SDS011;11325;55.686;37.566;2023-09-18T02:05:21;7.80;;;4.65;;
22314;SDS011;11325;55.686;37.566;2023-09-18T02:07:50;8.65;;;4.70;;
22314;SDS011;11325;55.686;37.566;2023-09-18T02:10:29;7.72;;;4.75;;
22314;SDS011;11325;55.686;37.566;2023-09-18T02:12:58;10.32;;;4.53;;
22314;SDS011;11325;55.686;37.566;2023-09-18T02:15:27;12.30;;;4.85;;
22314;SDS011;11325;55.686;37.566;2023-09-18T02:17:57;8.45;;;4.75;;
22314;SDS011;11325;55.686;37.566;2023-09-18T02:20:26;8.83;;;4.33;;
22314;SDS011;11325;55.686;37.566;2023-09-18T02:23:04;6.83;;;4.15;;
22314;SDS011;11325;55.686;37.566;2023-09-18T02:25:34;6.85;;;4.15;;
22314;SDS011;11325;55.686;37.566;2023-09-18T02:28:03;6.87;;;5.17;;
22314;SDS011;11325;55.686;37.566;2023-09-18T02:30:42;8.15;;;4.33;;
22314;SDS011;11325;55.686;37.566;2023-09-18T02:33:11;8.15;;;4.55;;
22314;SDS011;11325;55.686;37.566;2023-09-18T02:35:40;7.45;;;4.70;;
22314;SDS011;11325;55.686;37.566;2023-09-18T02:38:11;7.08;;;4.78;;
22314;SDS011;11325;55.686;37.566;2023-09-18T02:40:49;8.18;;;4.58;;
22314;SDS011;11325;55.686;37.566;2023-09-18T02:43:18;10.20;;;4.95;;
22314;SDS011;11325;55.686;37.566;2023-09-18T02:45:57;7.80;;;5.28;;
22314;SDS011;11325;55.686;37.566;2023-09-18T02:48:26;8.08;;;3.83;;
22314;SDS011;11325;55.686;37.566;2023-09-18T02:50:54;9.08;;;4.97;;
22314;SDS011;11325;55.686;37.566;2023-09-18T02:53:33;8.45;;;4.78;;
22314;SDS011;11325;55.686;37.566;2023-09-18T02:56:02;7.87;;;5.12;;
22314;SDS011;11325;55.686;37.566;2023-09-18T02:58:40;7.08;;;4.58;;
22314;SDS011;11325;55.686;37.566;2023-09-18T03:01:09;5.85;;;4.22;;
22314;SDS011;11325;55.686;37.566;2023-09-18T03:03:38;10.20;;;5.03;;
22314;SDS011;11325;55.686;37.566;2023-09-18T03:06:08;11.20;;;4.45;;
22314;SDS011;11325;55.686;37.566;2023-09-18T03:08:37;7.60;;;5.12;;
22314;SDS011;11325;55.686;37.566;2023-09-18T03:11:12;9.48;;;5.35;;
22314;SDS011;11325;55.686;37.566;2023-09-18T03:13:44;7.62;;;4.83;;
22314;SDS011;11325;55.686;37.566;2023-09-18T03:16:25;7.50;;;4.72;;
22314;SDS011;11325;55.686;37.566;2023-09-18T03:18:53;7.72;;;4.67;;
22314;SDS011;11325;55.686;37.566;2023-09-18T03:21:22;7.62;;;4.62;;
22314;SDS011;11325;55.686;37.566;2023-09-18T03:23:51;8.78;;;4.67;;
22314;SDS011;11325;55.686;37.566;2023-09-18T03:26:20;6.15;;;4.28;;
22314;SDS011;11325;55.686;37.566;2023-09-18T03:28:48;11.57;;;5.15;;
22314;SDS011;11325;55.686;37.566;2023-09-18T03:31:17;9.40;;;4.97;;
22314;SDS011;11325;55.686;37.566;2023-09-18T03:33:45;9.00;;;5.15;;
22314;SDS011;11325;55.686;37.566;2023-09-18T03:36:24;10.28;;;4.75;;
22314;SDS011;11325;55.686;37.566;2023-09-18T03:39:04;11.80;;;5.67;;
22314;SDS011;11325;55.686;37.566;2023-09-18T03:41:34;10.78;;;4.67;;
22314;SDS011;11325;55.686;37.566;2023-09-18T03:44:13;7.37;;;4.87;;
22314;SDS011;11325;55.686;37.566;2023-09-18T03:46:43;11.43;;;5.35;;
22314;SDS011;11325;55.686;37.566;2023-09-18T03:49:12;15.90;;;4.78;;
22314;SDS011;11325;55.686;37.566;2023-09-18T03:51:41;8.20;;;4.83;;
22314;SDS011;11325;55.686;37.566;2023-09-18T03:54:09;8.10;;;4.47;;
22314;SDS011;11325;55.686;37.566;2023-09-18T03:56:38;11.28;;;5.62;;
22314;SDS011;11325;55.686;37.566;2023-09-18T03:59:19;7.00;;;4.50;;
22314;SDS011;11325;55.686;37.566;2023-09-18T04:01:47;8.15;;;5.00;;
22314;SDS011;11325;55.686;37.566;2023-09-18T04:04:17;13.13;;;5.05;;
22314;SDS011;11325;55.686;37.566;2023-09-18T04:06:56;6.80;;;4.40;;
22314;SDS011;11325;55.686;37.566;2023-09-18T04:09:25;8.33;;;5.15;;
22314;SDS011;11325;55.686;37.566;2023-09-18T04:11:53;7.42;;;5.25;;
22314;SDS011;11325;55.686;37.566;2023-09-18T04:14:23;10.18;;;4.80;;
22314;SDS011;11325;55.686;37.566;2023-09-18T04:16:52;7.53;;;5.03;;
22314;SDS011;11325;55.686;37.566;2023-09-18T04:19:31;10.15;;;4.65;;
22314;SDS011;11325;55.686;37.566;2023-09-18T04:22:00;7.12;;;4.83;;
22314;SDS011;11325;55.686;37.566;2023-09-18T04:24:28;8.78;;;4.80;;
22314;SDS011;11325;55.686;37.566;2023-09-18T04:27:07;7.65;;;4.40;;
22314;SDS011;11325;55.686;37.566;2023-09-18T04:29:36;7.58;;;4.95;;
22314;SDS011;11325;55.686;37.566;2023-09-18T04:32:14;13.48;;;5.05;;
22314;SDS011;11325;55.686;37.566;2023-09-18T04:34:42;8.70;;;4.67;;
22314;SDS011;11325;55.686;37.566;2023-09-18T04:37:21;9.00;;;4.85;;
22314;SDS011;11325;55.686;37.566;2023-09-18T04:39:50;9.50;;;5.20;;
22314;SDS011;11325;55.686;37.566;2023-09-18T04:42:19;10.58;;;5.53;;
22314;SDS011;11325;55.686;37.566;2023-09-18T04:44:47;8.28;;;4.80;;
22314;SDS011;11325;55.686;37.566;2023-09-18T04:47:16;8.75;;;5.47;;
22314;SDS011;11325;55.686;37.566;2023-09-18T04:49:56;7.83;;;5.30;;
22314;SDS011;11325;55.686;37.566;2023-09-18T04:52:25;10.10;;;5.10;;
22314;SDS011;11325;55.686;37.566;2023-09-18T04:55:03;7.83;;;5.20;;
22314;SDS011;11325;55.686;37.566;2023-09-18T04:57:33;11.73;;;5.33;;
22314;SDS011;11325;55.686;37.566;2023-09-18T05:00:02;8.25;;;4.95;;
22314;SDS011;11325;55.686;37.566;2023-09-18T05:02:43;14.05;;;5.85;;
22314;SDS011;11325;55.686;37.566;2023-09-18T05:05:12;8.05;;;4.87;;
22314;SDS011;11325;55.686;37.566;2023-09-18T05:07:41;6.95;;;4.92;;
22314;SDS011;11325;55.686;37.566;2023-09-18T05:10:20;9.75;;;5.25;;
22314;SDS011;11325;55.686;37.566;2023-09-18T05:12:48;7.37;;;4.20;;
22314;SDS011;11325;55.686;37.566;2023-09-18T05:15:28;11.20;;;5.12;;
22314;SDS011;11325;55.686;37.566;2023-09-18T05:17:58;35.70;;;6.87;;
22314;SDS011;11325;55.686;37.566;2023-09-18T05:20:27;16.57;;;5.92;;
22314;SDS011;11325;55.686;37.566;2023-09-18T05:23:12;13.70;;;5.87;;
22314;SDS011;11325;55.686;37.566;2023-09-18T05:25:41;10.25;;;5.97;;
22314;SDS011;11325;55.686;37.566;2023-09-18T05:28:11;10.98;;;5.60;;
22314;SDS011;11325;55.686;37.566;2023-09-18T05:30:50;9.68;;;5.80;;
22314;SDS011;11325;55.686;37.566;2023-09-18T05:33:18;11.60;;;5.62;;
22314;SDS011;11325;55.686;37.566;2023-09-18T05:35:47;13.85;;;5.20;;
22314;SDS011;11325;55.686;37.566;2023-09-18T05:38:16;12.90;;;6.15;;
22314;SDS011;11325;55.686;37.566;2023-09-18T05:41:15;12.30;;;5.97;;
22314;SDS011;11325;55.686;37.566;2023-09-18T05:43:43;12.90;;;5.78;;
22314;SDS011;11325;55.686;37.566;2023-09-18T05:46:12;18.12;;;5.50;;
22314;SDS011;11325;55.686;37.566;2023-09-18T05:48:50;20.00;;;5.95;;
22314;SDS011;11325;55.686;37.566;2023-09-18T05:51:19;10.30;;;5.17;;
22314;SDS011;11325;55.686;37.566;2023-09-18T05:53:47;10.60;;;5.58;;
22314;SDS011;11325;55.686;37.566;2023-09-18T05:56:16;12.73;;;5.30;;
22314;SDS011;11325;55.686;37.566;2023-09-18T05:58:45;14.10;;;5.87;;
22314;SDS011;11325;55.686;37.566;2023-09-18T06:01:24;9.53;;;6.12;;
22314;SDS011;11325;55.686;37.566;2023-09-18T06:03:53;13.62;;;6.22;;
22314;SDS011;11325;55.686;37.566;2023-09-18T06:06:22;10.25;;;5.90;;
22314;SDS011;11325;55.686;37.566;2023-09-18T06:09:01;9.78;;;6.10;;
22314;SDS011;11325;55.686;37.566;2023-09-18T06:11:30;13.08;;;5.60;;
22314;SDS011;11325;55.686;37.566;2023-09-18T06:13:58;14.05;;;6.53;;
22314;SDS011;11325;55.686;37.566;2023-09-18T06:16:27;10.95;;;6.17;;
22314;SDS011;11325;55.686;37.566;2023-09-18T06:19:07;15.50;;;6.22;;
22314;SDS011;11325;55.686;37.566;2023-09-18T06:21:36;8.78;;;5.83;;
22314;SDS011;11325;55.686;37.566;2023-09-18T06:24:05;12.78;;;6.05;;
22314;SDS011;11325;55.686;37.566;2023-09-18T06:26:44;12.37;;;5.92;;
22314;SDS011;11325;55.686;37.566;2023-09-18T06:29:13;11.50;;;5.95;;
22314;SDS011;11325;55.686;37.566;2023-09-18T06:31:43;11.33;;;6.00;;
22314;SDS011;11325;55.686;37.566;2023-09-18T06:34:22;10.63;;;6.05;;
22314;SDS011;11325;55.686;37.566;2023-09-18T06:36:51;11.85;;;5.60;;
22314;SDS011;11325;55.686;37.566;2023-09-18T06:39:20;11.28;;;5.03;;
22314;SDS011;11325;55.686;37.566;2023-09-18T06:42:01;13.45;;;6.15;;
22314;SDS011;11325;55.686;37.566;2023-09-18T06:44:31;13.50;;;6.33;;
22314;SDS011;11325;55.686;37.566;2023-09-18T06:47:00;15.98;;;5.95;;
22314;SDS011;11325;55.686;37.566;2023-09-18T06:49:39;11.28;;;5.53;;
22314;SDS011;11325;55.686;37.566;2023-09-18T06:52:11;8.80;;;5.35;;
22314;SDS011;11325;55.686;37.566;2023-09-18T06:54:40;8.23;;;4.92;;
22314;SDS011;11325;55.686;37.566;2023-09-18T06:57:19;15.20;;;5.85;;
22314;SDS011;11325;55.686;37.566;2023-09-18T06:59:51;7.83;;;5.05;;
22314;SDS011;11325;55.686;37.566;2023-09-18T07:02:30;9.05;;;5.47;;
22314;SDS011;11325;55.686;37.566;2023-09-18T07:04:59;10.75;;;5.33;;
22314;SDS011;11325;55.686;37.566;2023-09-18T07:07:39;21.60;;;5.40;;
22314;SDS011;11325;55.686;37.566;2023-09-18T07:10:07;12.33;;;5.92;;
22314;SDS011;11325;55.686;37.566;2023-09-18T07:12:36;11.93;;;5.33;;
22314;SDS011;11325;55.686;37.566;2023-09-18T07:15:16;8.28;;;4.72;;
22314;SDS011;11325;55.686;37.566;2023-09-18T07:17:45;10.10;;;4.75;;
22314;SDS011;11325;55.686;37.566;2023-09-18T07:20:23;6.17;;;4.92;;
22314;SDS011;11325;55.686;37.566;2023-09-18T07:22:52;7.97;;;4.87;;
22314;SDS011;11325;55.686;37.566;2023-09-18T07:25:31;10.58;;;5.37;;
22314;SDS011;11325;55.686;37.566;2023-09-18T07:28:10;11.22;;;5.03;;
22314;SDS011;11325;55.686;37.566;2023-09-18T07:30:40;8.33;;;4.78;;
22314;SDS011;11325;55.686;37.566;2023-09-18T07:33:19;9.15;;;5.15;;
22314;SDS011;11325;55.686;37.566;2023-09-18T07:35:48;8.58;;;5.05;;
22314;SDS011;11325;55.686;37.566;2023-09-18T07:38:27;8.40;;;5.35;;
22314;SDS011;11325;55.686;37.566;2023-09-18T07:40:56;10.43;;;5.35;;
22314;SDS011;11325;55.686;37.566;2023-09-18T07:43:35;15.10;;;5.58;;
22314;SDS011;11325;55.686;37.566;2023-09-18T07:46:04;13.55;;;5.70;;
22314;SDS011;11325;55.686;37.566;2023-09-18T07:48:44;9.53;;;5.90;;
22314;SDS011;11325;55.686;37.566;2023-09-18T07:51:15;15.00;;;5.28;;
22314;SDS011;11325;55.686;37.566;2023-09-18T07:53:56;8.73;;;5.45;;
22314;SDS011;11325;55.686;37.566;2023-09-18T07:56:24;10.00;;;5.28;;
22314;SDS011;11325;55.686;37.566;2023-09-18T07:58:53;6.40;;;4.75;;
22314;SDS011;11325;55.686;37.566;2023-09-18T08:01:32;9.10;;;5.33;;
22314;SDS011;11325;55.686;37.566;2023-09-18T08:04:01;11.68;;;5.20;;
22314;SDS011;11325;55.686;37.566;2023-09-18T08:06:40;8.18;;;5.47;;
22314;SDS011;11325;55.686;37.566;2023-09-18T08:09:09;9.80;;;6.00;;
22314;SDS011;11325;55.686;37.566;2023-09-18T08:11:49;7.75;;;5.47;;
22314;SDS011;11325;55.686;37.566;2023-09-18T08:14:18;10.45;;;5.08;;
22314;SDS011;11325;55.686;37.566;2023-09-18T08:16:57;14.78;;;5.37;;
22314;SDS011;11325;55.686;37.566;2023-09-18T08:19:26;8.03;;;5.17;;
22314;SDS011;11325;55.686;37.566;2023-09-18T08:22:05;9.18;;;5.40;;
22314;SDS011;11325;55.686;37.566;2023-09-18T08:24:45;11.50;;;5.90;;
22314;SDS011;11325;55.686;37.566;2023-09-18T08:27:14;14.83;;;6.03;;
22314;SDS011;11325;55.686;37.566;2023-09-18T08:29:56;13.40;;;5.55;;
22314;SDS011;11325;55.686;37.566;2023-09-18T08:32:24;13.00;;;6.28;;
22314;SDS011;11325;55.686;37.566;2023-09-18T08:35:03;17.20;;;6.25;;
22314;SDS011;11325;55.686;37.566;2023-09-18T08:37:32;9.18;;;4.95;;
22314;SDS011;11325;55.686;37.566;2023-09-18T08:40:11;11.08;;;5.60;;
22314;SDS011;11325;55.686;37.566;2023-09-18T08:45:23;10.20;;;6.45;;
22314;SDS011;11325;55.686;37.566;2023-09-18T08:48:02;8.98;;;5.70;;
22314;SDS011;11325;55.686;37.566;2023-09-18T08:50:31;12.68;;;6.33;;
22314;SDS011;11325;55.686;37.566;2023-09-18T08:53:09;9.38;;;5.15;;
22314;SDS011;11325;55.686;37.566;2023-09-18T08:55:38;7.33;;;5.42;;
22314;SDS011;11325;55.686;37.566;2023-09-18T08:58:17;7.37;;;5.42;;
22314;SDS011;11325;55.686;37.566;2023-09-18T09:00:48;10.13;;;5.83;;
22314;SDS011;11325;55.686;37.566;2023-09-18T09:03:27;15.40;;;6.12;;
22314;SDS011;11325;55.686;37.566;2023-09-18T09:05:56;8.43;;;5.87;;
22314;SDS011;11325;55.686;37.566;2023-09-18T09:08:34;15.15;;;6.05;;
22314;SDS011;11325;55.686;37.566;2023-09-18T09:11:04;10.23;;;5.80;;
22314;SDS011;11325;55.686;37.566;2023-09-18T09:13:42;11.97;;;5.87;;
22314;SDS011;11325;55.686;37.566;2023-09-18T09:16:12;10.40;;;5.37;;
22314;SDS011;11325;55.686;37.566;2023-09-18T09:18:51;10.43;;;6.35;;
22314;SDS011;11325;55.686;37.566;2023-09-18T09:21:39;9.50;;;5.15;;
22314;SDS011;11325;55.686;37.566;2023-09-18T09:24:07;7.92;;;5.33;;
22314;SDS011;11325;55.686;37.566;2023-09-18T09:26:56;10.03;;;5.53;;
22314;SDS011;11325;55.686;37.566;2023-09-18T09:29:20;11.15;;;5.35;;
22314;SDS011;11325;55.686;37.566;2023-09-18T09:34:54;8.63;;;5.47;;
22314;SDS011;11325;55.686;37.566;2023-09-18T09:37:34;10.88;;;6.00;;
22314;SDS011;11325;55.686;37.566;2023-09-18T09:40:05;9.65;;;6.00;;
22314;SDS011;11325;55.686;37.566;2023-09-18T09:42:39;10.03;;;6.37;;
22314;SDS011;11325;55.686;37.566;2023-09-18T09:45:18;9.20;;;5.60;;
22314;SDS011;11325;55.686;37.566;2023-09-18T09:47:47;9.65;;;5.78;;
22314;SDS011;11325;55.686;37.566;2023-09-18T09:50:15;8.63;;;6.10;;
22314;SDS011;11325;55.686;37.566;2023-09-18T09:52:56;11.73;;;5.65;;
22314;SDS011;11325;55.686;37.566;2023-09-18T09:55:26;11.00;;;5.80;;
22314;SDS011;11325;55.686;37.566;2023-09-18T09:58:10;8.45;;;5.60;;
22314;SDS011;11325;55.686;37.566;2023-09-18T10:00:43;13.93;;;6.03;;
22314;SDS011;11325;55.686;37.566;2023-09-18T10:03:13;10.13;;;5.97;;
22314;SDS011;11325;55.686;37.566;2023-09-18T10:05:53;10.75;;;5.40;;
22314;SDS011;11325;55.686;37.566;2023-09-18T10:08:23;11.55;;;5.90;;
22314;SDS011;11325;55.686;37.566;2023-09-18T10:11:08;11.60;;;5.87;;
22314;SDS011;11325;55.686;37.566;2023-09-18T10:16:31;12.53;;;6.25;;
22314;SDS011;11325;55.686;37.566;2023-09-18T10:19:07;10.88;;;5.72;;
22314;SDS011;11325;55.686;37.566;2023-09-18T10:24:34;9.58;;;5.47;;
22314;SDS011;11325;55.686;37.566;2023-09-18T10:27:16;9.73;;;6.03;;
22314;SDS011;11325;55.686;37.566;2023-09-18T10:29:46;11.50;;;6.47;;
22314;SDS011;11325;55.686;37.566;2023-09-18T10:32:27;10.28;;;5.65;;
22314;SDS011;11325;55.686;37.566;2023-09-18T10:34:56;10.90;;;6.65;;
22314;SDS011;11325;55.686;37.566;2023-09-18T10:37:36;9.50;;;5.87;;
22314;SDS011;11325;55.686;37.566;2023-09-18T10:40:05;19.75;;;7.47;;
22314;SDS011;11325;55.686;37.566;2023-09-18T10:42:45;10.35;;;5.78;;
22314;SDS011;11325;55.686;37.566;2023-09-18T10:45:14;10.90;;;6.85;;
22314;SDS011;11325;55.686;37.566;2023-09-18T10:47:44;11.35;;;6.33;;
22314;SDS011;11325;55.686;37.566;2023-09-18T10:50:23;11.78;;;6.62;;
22314;SDS011;11325;55.686;37.566;2023-09-18T10:52:59;13.80;;;6.90;;
22314;SDS011;11325;55.686;37.566;2023-09-18T10:55:38;13.72;;;6.65;;
22314;SDS011;11325;55.686;37.566;2023-09-18T10:58:07;12.93;;;6.65;;
22314;SDS011;11325;55.686;37.566;2023-09-18T11:00:45;12.93;;;7.22;;
22314;SDS011;11325;55.686;37.566;2023-09-18T11:03:17;16.35;;;6.37;;
22314;SDS011;11325;55.686;37.566;2023-09-18T11:05:46;11.12;;;6.80;;
22314;SDS011;11325;55.686;37.566;2023-09-18T11:08:25;16.80;;;7.30;;
22314;SDS011;11325;55.686;37.566;2023-09-18T11:13:36;12.65;;;7.08;;
22314;SDS011;11325;55.686;37.566;2023-09-18T11:16:18;10.20;;;6.20;;
22314;SDS011;11325;55.686;37.566;2023-09-18T11:21:32;11.53;;;7.47;;
22314;SDS011;11325;55.686;37.566;2023-09-18T11:26:47;8.30;;;6.17;;
22314;SDS011;11325;55.686;37.566;2023-09-18T11:29:26;10.75;;;6.78;;
22314;SDS011;11325;55.686;37.566;2023-09-18T11:32:12;9.83;;;6.08;;
22314;SDS011;11325;55.686;37.566;2023-09-18T11:34:43;13.25;;;7.60;;
22314;SDS011;11325;55.686;37.566;2023-09-18T11:37:21;12.05;;;7.37;;
22314;SDS011;11325;55.686;37.566;2023-09-18T11:39:51;13.38;;;7.53;;
22314;SDS011;11325;55.686;37.566;2023-09-18T11:42:29;11.93;;;7.90;;
22314;SDS011;11325;55.686;37.566;2023-09-18T11:44:57;15.18;;;7.92;;
22314;SDS011;11325;55.686;37.566;2023-09-18T11:47:37;12.90;;;7.53;;
22314;SDS011;11325;55.686;37.566;2023-09-18T11:50:10;10.72;;;6.92;;
22314;SDS011;11325;55.686;37.566;2023-09-18T11:52:39;11.35;;;7.03;;
22314;SDS011;11325;55.686;37.566;2023-09-18T11:55:08;10.88;;;7.25;;
22314;SDS011;11325;55.686;37.566;2023-09-18T11:57:48;12.30;;;6.90;;
22314;SDS011;11325;55.686;37.566;2023-09-18T12:00:20;12.55;;;5.85;;
22314;SDS011;11325;55.686;37.566;2023-09-18T12:03:13;13.62;;;6.28;;
22314;SDS011;11325;55.686;37.566;2023-09-18T12:05:42;14.45;;;6.20;;
22314;SDS011;11325;55.686;37.566;2023-09-18T12:08:11;10.25;;;6.42;;
22314;SDS011;11325;55.686;37.566;2023-09-18T12:10:50;13.35;;;5.80;;
22314;SDS011;11325;55.686;37.566;2023-09-18T12:13:19;9.18;;;5.53;;
22314;SDS011;11325;55.686;37.566;2023-09-18T12:15:58;9.03;;;5.55;;
22314;SDS011;11325;55.686;37.566;2023-09-18T12:18:37;13.90;;;6.15;;
22314;SDS011;11325;55.686;37.566;2023-09-18T12:21:08;10.15;;;5.10;;
22314;SDS011;11325;55.686;37.566;2023-09-18T12:23:37;11.53;;;6.37;;
22314;SDS011;11325;55.686;37.566;2023-09-18T12:26:16;14.53;;;5.87;;
22314;SDS011;11325;55.686;37.566;2023-09-18T12:28:50;9.30;;;5.87;;
22314;SDS011;11325;55.686;37.566;2023-09-18T12:31:29;6.50;;;4.53;;
22314;SDS011;11325;55.686;37.566;2023-09-18T12:33:59;6.72;;;4.67;;
22314;SDS011;11325;55.686;37.566;2023-09-18T12:36:28;8.43;;;5.20;;
22314;SDS011;11325;55.686;37.566;2023-09-18T12:39:07;8.60;;;5.55;;
22314;SDS011;11325;55.686;37.566;2023-09-18T12:41:36;11.12;;;5.10;;
22314;SDS011;11325;55.686;37.566;2023-09-18T12:44:15;10.68;;;4.47;;
22314;SDS011;11325;55.686;37.566;2023-09-18T12:46:44;7.92;;;4.30;;
22314;SDS011;11325;55.686;37.566;2023-09-18T12:49:18;7.08;;;4.40;;
22314;SDS011;11325;55.686;37.566;2023-09-18T12:51:58;8.25;;;3.92;;
22314;SDS011;11325;55.686;37.566;2023-09-18T12:54:37;16.00;;;4.22;;
22314;SDS011;11325;55.686;37.566;2023-09-18T12:57:16;5.90;;;3.62;;
22314;SDS011;11325;55.686;37.566;2023-09-18T12:59:46;9.65;;;4.60;;
22314;SDS011;11325;55.686;37.566;2023-09-18T13:02:19;7.65;;;4.10;;
22314;SDS011;11325;55.686;37.566;2023-09-18T13:04:58;9.93;;;4.42;;
22314;SDS011;11325;55.686;37.566;2023-09-18T13:07:28;9.10;;;4.00;;
22314;SDS011;11325;55.686;37.566;2023-09-18T13:10:10;12.55;;;4.60;;
22314;SDS011;11325;55.686;37.566;2023-09-18T13:15:25;7.45;;;4.87;;
22314;SDS011;11325;55.686;37.566;2023-09-18T13:17:55;3.92;;;3.52;;
22314;SDS011;11325;55.686;37.566;2023-09-18T13:23:04;5.95;;;4.28;;
22314;SDS011;11325;55.686;37.566;2023-09-18T13:28:13;7.17;;;4.10;;
22314;SDS011;11325;55.686;37.566;2023-09-18T13:30:42;5.08;;;3.90;;
22314;SDS011;11325;55.686;37.566;2023-09-18T13:33:13;7.90;;;4.20;;
22314;SDS011;11325;55.686;37.566;2023-09-18T13:35:53;5.30;;;3.80;;
22314;SDS011;11325;55.686;37.566;2023-09-18T13:38:23;4.90;;;3.55;;
22314;SDS011;11325;55.686;37.566;2023-09-18T13:40:53;7.72;;;3.75;;
22314;SDS011;11325;55.686;37.566;2023-09-18T13:43:35;5.08;;;3.62;;
22314;SDS011;11325;55.686;37.566;2023-09-18T13:46:04;7.40;;;3.65;;
22314;SDS011;11325;55.686;37.566;2023-09-18T13:48:42;5.65;;;3.05;;
22314;SDS011;11325;55.686;37.566;2023-09-18T13:51:21;9.75;;;3.83;;
22314;SDS011;11325;55.686;37.566;2023-09-18T13:53:52;9.80;;;3.70;;
22314;SDS011;11325;55.686;37.566;2023-09-18T13:56:23;5.78;;;3.35;;
22314;SDS011;11325;55.686;37.566;2023-09-18T13:59:04;7.72;;;3.80;;
22314;SDS011;11325;55.686;37.566;2023-09-18T14:01:33;7.85;;;3.72;;
22314;SDS011;11325;55.686;37.566;2023-09-18T14:04:01;12.88;;;3.83;;
22314;SDS011;11325;55.686;37.566;2023-09-18T14:06:32;9.35;;;4.17;;
22314;SDS011;11325;55.686;37.566;2023-09-18T14:09:01;5.05;;;3.80;;
22314;SDS011;11325;55.686;37.566;2023-09-18T14:11:42;10.32;;;4.03;;
22314;SDS011;11325;55.686;37.566;2023-09-18T14:14:11;5.12;;;3.80;;
22314;SDS011;11325;55.686;37.566;2023-09-18T14:16:40;6.70;;;4.28;;
22314;SDS011;11325;55.686;37.566;2023-09-18T14:19:19;8.03;;;3.92;;
22314;SDS011;11325;55.686;37.566;2023-09-18T14:21:50;5.95;;;4.20;;
22314;SDS011;11325;55.686;37.566;2023-09-18T14:24:29;10.40;;;4.67;;
22314;SDS011;11325;55.686;37.566;2023-09-18T14:26:58;9.75;;;4.37;;
22314;SDS011;11325;55.686;37.566;2023-09-18T14:29:27;9.13;;;4.97;;
22314;SDS011;11325;55.686;37.566;2023-09-18T14:32:05;9.95;;;4.15;;
22314;SDS011;11325;55.686;37.566;2023-09-18T14:34:35;7.53;;;4.70;;
22314;SDS011;11325;55.686;37.566;2023-09-18T14:37:04;10.03;;;4.75;;
22314;SDS011;11325;55.686;37.566;2023-09-18T14:39:33;6.87;;;4.80;;
22314;SDS011;11325;55.686;37.566;2023-09-18T14:42:02;9.23;;;4.87;;
22314;SDS011;11325;55.686;37.566;2023-09-18T14:44:31;12.88;;;4.53;;
22314;SDS011;11325;55.686;37.566;2023-09-18T14:47:13;7.03;;;4.70;;
22314;SDS011;11325;55.686;37.566;2023-09-18T14:49:43;7.10;;;4.58;;
22314;SDS011;11325;55.686;37.566;2023-09-18T14:52:24;9.25;;;5.08;;
22314;SDS011;11325;55.686;37.566;2023-09-18T14:54:53;7.15;;;5.05;;
22314;SDS011;11325;55.686;37.566;2023-09-18T14:57:33;20.32;;;4.92;;
22314;SDS011;11325;55.686;37.566;2023-09-18T15:00:13;10.00;;;4.97;;
22314;SDS011;11325;55.686;37.566;2023-09-18T15:02:52;11.12;;;4.87;;
22314;SDS011;11325;55.686;37.566;2023-09-18T15:05:22;8.58;;;5.90;;
22314;SDS011;11325;55.686;37.566;2023-09-18T15:08:01;7.28;;;4.92;;
22314;SDS011;11325;55.686;37.566;2023-09-18T15:10:30;9.68;;;5.30;;
22314;SDS011;11325;55.686;37.566;2023-09-18T15:13:09;16.57;;;5.08;;
22314;SDS011;11325;55.686;37.566;2023-09-18T15:15:38;11.60;;;5.72;;
22314;SDS011;11325;55.686;37.566;2023-09-18T15:18:09;12.33;;;5.72;;
22314;SDS011;11325;55.686;37.566;2023-09-18T15:20:48;8.88;;;5.25;;
22314;SDS011;11325;55.686;37.566;2023-09-18T15:23:18;8.55;;;4.67;;
22314;SDS011;11325;55.686;37.566;2023-09-18T15:25:49;13.68;;;5.53;;
22314;SDS011;11325;55.686;37.566;2023-09-18T15:28:28;7.62;;;4.90;;
22314;SDS011;11325;55.686;37.566;2023-09-18T15:30:57;9.70;;;4.75;;